Leewood, West Virginia
Current Conditions -  °F | °C
As of 4:54 PM on Wednesday 22 Oct 2014 (Local Time) from KCRW Reporting Station
Overcast Overcast  
Wind Chill: 51°   Ceiling: 1800
Heat Index: 51°   Visibility: 10mi
Dew Point: 43°   Wind: 7mph
Humidity: 74%   Direction: 300°WNW
Pressure: 30.2"   Gusts: NA
Location:  38.07°N, 81.45°W
Report Text: KCRW 222054Z 30006KT 10SM BKN018 OVC034 11/06 A3020 RMK AO2 SLP228 T01060061 53001
Loading
Personal Weather Stations






























Interactive Weather Map
Tropical Storm Tracking
New forecast layout! Learn more

10-Day Weather Forecast

Advertisements
Track Severe Weather on mobile